createdAt,value
2018-09-29T00:03:08.146Z,10.70
2018-09-29T00:07:12.499Z,10.70
2018-09-29T00:11:17.060Z,10.80
2018-09-29T00:15:21.324Z,10.90
2018-09-29T00:19:25.507Z,11.00
2018-09-29T00:23:29.578Z,11.00
2018-09-29T00:27:33.990Z,10.90
2018-09-29T00:31:38.267Z,10.80
2018-09-29T00:35:43.512Z,10.70
2018-09-29T00:39:48.224Z,10.80
2018-09-29T00:43:52.524Z,10.80
2018-09-29T00:47:56.804Z,10.70
2018-09-29T00:52:01.153Z,10.60
2018-09-29T00:56:05.340Z,10.50
2018-09-29T01:00:09.504Z,10.50
2018-09-29T01:04:13.739Z,10.60
2018-09-29T01:08:18.961Z,10.60
2018-09-29T01:12:23.000Z,10.60
2018-09-29T01:16:27.075Z,10.60
2018-09-29T01:20:31.143Z,10.60
2018-09-29T01:24:35.216Z,10.70
2018-09-29T01:28:39.518Z,10.60
2018-09-29T01:32:44.774Z,10.60
2018-09-29T01:36:49.166Z,10.60
2018-09-29T01:40:53.219Z,10.60
2018-09-29T01:44:57.314Z,10.50
2018-09-29T01:49:01.497Z,10.50
2018-09-29T01:53:05.598Z,10.50
2018-09-29T01:57:09.841Z,10.50
2018-09-29T02:01:14.404Z,10.40
2018-09-29T02:05:18.664Z,10.50
2018-09-29T02:09:22.697Z,10.60
2018-09-29T02:13:26.884Z,10.70
2018-09-29T02:17:30.903Z,10.80
2018-09-29T02:21:35.254Z,10.80
2018-09-29T02:25:39.283Z,10.70
2018-09-29T02:29:43.793Z,10.70
2018-09-29T02:33:48.146Z,10.70
2018-09-29T02:37:52.215Z,10.70
2018-09-29T02:41:56.510Z,10.70
2018-09-29T02:46:00.647Z,10.60
2018-09-29T02:50:04.929Z,10.70
2018-09-29T02:54:09.024Z,10.80
2018-09-29T02:58:13.132Z,10.70
2018-09-29T03:02:17.279Z,10.60
2018-09-29T03:06:21.458Z,10.50
2018-09-29T03:10:25.535Z,10.50
2018-09-29T03:14:29.564Z,10.30
2018-09-29T03:18:33.581Z,10.30
2018-09-29T03:22:37.774Z,10.30
2018-09-29T03:26:43.082Z,10.20
2018-09-29T03:30:48.041Z,10.20
2018-09-29T03:34:52.287Z,10.20
2018-09-29T03:38:56.437Z,10.20
2018-09-29T03:43:00.552Z,10.20
2018-09-29T03:47:04.661Z,10.20
2018-09-29T03:51:08.868Z,10.20
2018-09-29T03:55:14.337Z,10.10
2018-09-29T03:59:18.698Z,10.00
2018-09-29T04:03:22.768Z,9.90
2018-09-29T04:07:27.220Z,9.60
2018-09-29T04:11:31.256Z,9.50
2018-09-29T04:15:35.413Z,9.30
2018-09-29T04:19:39.465Z,9.40
2018-09-29T04:23:44.084Z,9.70
2018-09-29T04:27:48.303Z,9.60
2018-09-29T04:31:52.430Z,9.50
2018-09-29T04:35:56.854Z,9.70
2018-09-29T04:40:01.215Z,10.10
2018-09-29T04:44:05.442Z,10.10
2018-09-29T04:48:10.541Z,10.20
2018-09-29T04:52:14.941Z,10.30
2018-09-29T04:56:19.915Z,10.20
2018-09-29T05:00:24.031Z,10.20
2018-09-29T05:04:28.259Z,10.40
2018-09-29T05:08:32.439Z,10.50
2018-09-29T05:12:36.482Z,10.70
2018-09-29T05:16:40.560Z,10.80
2018-09-29T05:20:45.920Z,10.90
2018-09-29T05:24:50.256Z,10.90
2018-09-29T05:28:54.368Z,11.00
2018-09-29T05:32:59.673Z,11.10
2018-09-29T05:37:03.686Z,11.10
2018-09-29T05:41:07.879Z,11.10
2018-09-29T05:45:15.790Z,11.10
2018-09-29T05:49:20.116Z,11.20
2018-09-29T05:53:24.358Z,11.20
2018-09-29T05:57:28.410Z,11.30
2018-09-29T06:01:32.554Z,11.30
2018-09-29T06:05:36.876Z,11.30
2018-09-29T06:09:41.815Z,11.40
2018-09-29T06:13:46.456Z,11.40
2018-09-29T06:17:50.869Z,11.40
2018-09-29T06:21:54.947Z,11.50
2018-09-29T06:25:59.502Z,11.60
2018-09-29T06:30:03.803Z,11.70
2018-09-29T06:34:07.970Z,11.70
2018-09-29T06:38:14.136Z,11.70
2018-09-29T06:42:18.440Z,11.80
2018-09-29T06:46:22.716Z,12.00
2018-09-29T06:50:26.772Z,11.90
2018-09-29T06:54:30.900Z,12.10
2018-09-29T06:58:35.067Z,12.20
2018-09-29T07:02:39.169Z,12.40
2018-09-29T07:06:44.013Z,12.50
2018-09-29T07:10:48.321Z,12.60
2018-09-29T07:14:52.592Z,12.70
2018-09-29T07:18:56.691Z,12.90
2018-09-29T07:23:01.039Z,13.00
2018-09-29T07:27:06.992Z,13.10
2018-09-29T07:31:11.025Z,13.10
2018-09-29T07:35:15.207Z,13.00
2018-09-29T07:39:19.463Z,13.10
2018-09-29T07:43:23.739Z,13.20
2018-09-29T07:47:27.959Z,13.30
2018-09-29T07:51:32.207Z,13.60
2018-09-29T07:55:36.386Z,13.60
2018-09-29T07:59:40.591Z,13.80
2018-09-29T08:03:45.047Z,14.10
2018-09-29T08:07:49.326Z,14.40
2018-09-29T08:11:53.753Z,14.50
2018-09-29T08:15:57.803Z,14.70
2018-09-29T08:20:01.951Z,14.90
2018-09-29T08:24:06.283Z,15.40
2018-09-29T08:28:41.581Z,15.50
2018-09-29T08:32:45.856Z,15.70
2018-09-29T08:36:49.989Z,16.20
2018-09-29T08:40:54.176Z,16.40
2018-09-29T08:44:58.412Z,17.00
2018-09-29T08:49:02.597Z,17.40
2018-09-29T08:53:07.064Z,17.80
2018-09-29T08:57:11.330Z,18.20
2018-09-29T09:01:15.485Z,18.40
2018-09-29T09:05:19.595Z,18.90
2018-09-29T09:09:23.720Z,19.40
2018-09-29T09:13:27.924Z,19.10
2018-09-29T09:17:32.123Z,19.40
2018-09-29T09:21:36.501Z,19.80
2018-09-29T09:25:40.861Z,20.10
2018-09-29T09:29:45.117Z,20.20
2018-09-29T09:33:49.372Z,20.40
2018-09-29T09:37:53.464Z,20.10
2018-09-29T09:41:57.620Z,20.10
2018-09-29T09:46:01.835Z,20.50
2018-09-29T09:50:06.173Z,20.80
2018-09-29T09:54:10.426Z,20.70
2018-09-29T09:58:14.976Z,20.90
2018-09-29T10:02:24.590Z,20.20
2018-09-29T10:06:28.747Z,19.20
2018-09-29T10:10:34.213Z,18.40
2018-09-29T10:14:38.606Z,18.30
2018-09-29T10:18:42.698Z,18.00
2018-09-29T10:22:46.839Z,17.60
2018-09-29T10:26:51.139Z,17.30
2018-09-29T10:30:55.272Z,17.10
2018-09-29T10:34:59.459Z,17.10
2018-09-29T10:39:05.040Z,16.90
2018-09-29T10:43:09.505Z,16.60
2018-09-29T10:47:14.048Z,16.60
2018-09-29T10:51:18.536Z,16.40
2018-09-29T10:55:22.716Z,16.30
2018-09-29T10:59:26.835Z,16.30
2018-09-29T11:03:30.933Z,16.10
2018-09-29T11:07:35.295Z,16.10
2018-09-29T11:11:39.421Z,16.00
2018-09-29T11:15:43.595Z,16.00
2018-09-29T11:19:47.696Z,16.00
2018-09-29T11:23:51.808Z,15.90
2018-09-29T11:27:55.999Z,15.80
2018-09-29T11:31:59.968Z,15.80
2018-09-29T11:36:04.750Z,15.70
2018-09-29T11:40:09.420Z,15.80
2018-09-29T11:44:13.521Z,15.70
2018-09-29T11:48:17.625Z,15.60
2018-09-29T11:52:21.767Z,15.50
2018-09-29T11:56:26.095Z,15.40
2018-09-29T12:00:30.346Z,15.50
2018-09-29T12:04:34.980Z,15.50
2018-09-29T12:08:39.141Z,15.40
2018-09-29T12:12:43.571Z,15.40
2018-09-29T12:16:48.001Z,15.40
2018-09-29T12:20:52.559Z,15.30
2018-09-29T12:24:56.815Z,15.30
2018-09-29T12:29:00.888Z,15.30
2018-09-29T12:33:06.232Z,15.30
2018-09-29T12:37:10.645Z,15.30
2018-09-29T12:41:14.649Z,15.30
2018-09-29T12:45:19.021Z,15.20
2018-09-29T12:49:23.067Z,15.40
2018-09-29T12:53:27.242Z,15.40
2018-09-29T12:57:31.346Z,15.40
2018-09-29T13:01:35.599Z,15.40
2018-09-29T13:05:39.881Z,15.80
2018-09-29T13:09:44.007Z,15.90
2018-09-29T13:13:48.082Z,15.80
2018-09-29T13:17:52.295Z,15.80
2018-09-29T13:21:56.591Z,15.90
2018-09-29T13:26:00.796Z,15.80
2018-09-29T13:30:05.177Z,15.70
2018-09-29T13:34:09.794Z,15.60
2018-09-29T13:38:13.977Z,15.60
2018-09-29T13:42:18.351Z,15.50
2018-09-29T13:46:22.485Z,15.50
2018-09-29T13:50:26.771Z,15.40
2018-09-29T22:18:43.649Z,26.20
2018-09-29T22:22:58.756Z,20.50
2018-09-29T22:27:02.928Z,14.10
2018-09-29T22:31:07.189Z,12.10
2018-09-29T22:35:11.480Z,11.40
2018-09-29T22:39:15.743Z,11.10
2018-09-29T22:43:20.071Z,11.20
2018-09-29T22:47:24.318Z,10.90
2018-09-29T22:51:28.443Z,11.10
2018-09-29T22:55:32.527Z,11.10
2018-09-29T22:59:36.807Z,11.10
2018-09-29T23:03:41.495Z,10.80
2018-09-29T23:07:46.322Z,10.90
2018-09-29T23:11:50.527Z,11.10
2018-09-29T23:15:54.765Z,11.10
2018-09-29T23:19:59.091Z,11.10
2018-09-29T23:24:03.295Z,11.30
2018-09-29T23:28:07.607Z,11.40
2018-09-29T23:32:12.195Z,11.60
2018-09-29T23:36:19.209Z,11.60
2018-09-29T23:40:23.452Z,11.70
2018-09-29T23:44:27.599Z,11.70
2018-09-29T23:48:31.769Z,11.80
2018-09-29T23:52:36.049Z,11.70
2018-09-29T23:56:41.152Z,11.80
